KDMN

Deming Municipal Airport

Deming, New Mexico, USA
METAR KDMN 161353Z AUTO 30003KT 10SM CLR M08/M13 A2998 RMK AO2 SLP160 T10831133
Observed Flight Rules
Dec-16 @ 13:53 UTC (56 minutes ago) Visual Flight Rules
Wind Visibility Clouds
300° at 3 knots 10 miles
  • Clear skies
Temperatures Readings
Current -8°C / 18°F
Dewpoint -13°C / 9°F
Humidity 68%
Altimeter 29.98" Hg
Pressure 1016 hPa
Elevation 1311
METAR KDMN 161353Z AUTO 30003KT 10SM CLR M08/M13 A2998 RMK AO2 SLP160 T10831133
Observed Flight Rules
Dec-16 @ 13:53 UTC
(56 minutes ago)
VFR
Wind Visibility
300° at 3 knots 10 miles
Clouds
  • Clear skies
Temperature Dewpoint
-8°C / 18°F -13°C / 9°F
Humidity Altimeter Pressure
68% 29.98" Hg 1016 hPa